Loon Lake, Indiana
Current Conditions -  °F | °C
As of 7:54 PM on Monday 24 Nov 2014 (Local Time) from KFWA Reporting Station
Overcast Overcast  
Wind Chill: 21°   Ceiling: 2600
Heat Index: 34°   Visibility: 10mi
Dew Point: 26°   Wind: 28mph
Humidity: 73%   Direction: 240°WSW
Pressure: 29.73"   Gusts: 39mph
Location:  41.1479°N, 85.4772°W
Report Text: KFWA 250054Z 24024G34KT 10SM OVC026 01/M03 A2973 RMK AO2 PK WND 24035/0026 SLP070 T00111033
Loading
Personal Weather Stations






























Interactive Weather Map New forecast layout! Learn more

10-Day Weather Forecast

Advertisements
Track Severe Weather on mobile